Time;durP1;ratioP1;P1;durP2;ratioP2;P2;SDS_P1;SDS_P2;PMS_P1;PMS_P2;Temp;Humidity;BMP_temperature;BMP_pressure;BME280_temperature;BME280_humidity;BME280_pressure;Samples;Min_cycle;Max_cycle;Signal;HPM_P1;HPM_P2
2022/04/15 00:00:45;;;;;;;3.30;2.40;;;19.70;99.90;;;;;;4240799;27;20224;-76
2022/04/15 00:02:48;;;;;;;2.80;2.13;;;19.80;99.90;;;;;;4240870;27;20278;-76
2022/04/15 00:04:51;;;;;;;2.50;2.03;;;19.80;99.90;;;;;;4240671;27;20274;-76
2022/04/15 00:06:53;;;;;;;2.65;2.13;;;19.70;99.90;;;;;;4238523;27;20216;-76
2022/04/15 00:08:55;;;;;;;3.10;2.22;;;19.70;99.90;;;;;;4240141;27;20224;-76
2022/04/15 00:10:58;;;;;;;4.35;2.25;;;19.70;99.90;;;;;;4241189;27;20248;-76
2022/04/15 00:13:01;;;;;;;3.72;2.33;;;19.70;99.90;;;;;;4241049;27;20224;-76
2022/04/15 00:15:03;;;;;;;3.53;2.40;;;19.70;99.90;;;;;;4239955;27;20290;-76
2022/04/15 00:17:06;;;;;;;4.20;2.30;;;19.70;99.90;;;;;;4239939;27;20209;-76
2022/04/15 00:19:10;;;;;;;3.03;2.17;;;19.70;99.90;;;;;;4240776;28;20630;-76
2022/04/15 00:21:12;;;;;;;3.67;2.40;;;19.70;99.90;;;;;;4241183;28;20281;-76
2022/04/15 00:23:14;;;;;;;4.30;2.40;;;19.70;99.90;;;;;;4239209;28;20270;-76
2022/04/15 00:25:16;;;;;;;2.58;2.00;;;19.70;99.90;;;;;;4239986;28;20266;-77
2022/04/15 00:27:19;;;;;;;3.45;2.28;;;19.70;99.90;;;;;;4240544;28;20334;-76
2022/04/15 00:29:21;;;;;;;4.00;2.50;;;19.70;99.90;;;;;;4240428;28;20361;-76
2022/04/15 00:31:24;;;;;;;3.08;2.22;;;19.70;99.90;;;;;;4240244;28;20270;-76
2022/04/15 00:33:26;;;;;;;3.60;2.20;;;19.70;99.90;;;;;;4240078;28;20217;-76
2022/04/15 00:35:30;;;;;;;3.47;2.40;;;19.70;99.90;;;;;;4240127;27;20232;-75
2022/04/15 00:37:32;;;;;;;3.15;2.20;;;19.70;99.90;;;;;;4240632;28;20225;-76
2022/04/15 00:39:35;;;;;;;2.85;2.40;;;19.70;99.90;;;;;;4239385;28;20216;-76
2022/04/15 00:41:37;;;;;;;3.33;2.75;;;19.70;99.90;;;;;;4238430;27;20234;-76
2022/04/15 00:43:40;;;;;;;3.10;2.28;;;19.60;99.90;;;;;;4241922;28;20225;-77
2022/04/15 00:45:42;;;;;;;3.72;2.30;;;19.70;99.90;;;;;;4241916;28;20262;-76
2022/04/15 00:47:51;;;;;;;2.50;2.28;;;19.70;99.90;;;;;;4242191;28;20212;-76
2022/04/15 00:49:53;;;;;;;3.20;2.30;;;19.60;99.90;;;;;;4240691;28;20224;-76
2022/04/15 00:51:58;;;;;;;2.90;2.28;;;19.60;99.90;;;;;;4234545;28;20639;-76
2022/04/15 00:54:03;;;;;;;3.67;2.58;;;19.70;99.90;;;;;;4220064;28;20264;-76
2022/04/15 00:56:08;;;;;;;5.10;2.80;;;19.60;99.90;;;;;;4216153;28;20708;-76
2022/04/15 00:58:11;;;;;;;3.95;2.60;;;19.60;99.90;;;;;;4214381;28;20675;-76
2022/04/15 01:00:14;;;;;;;3.65;2.70;;;19.60;99.90;;;;;;4215921;28;20230;-76
2022/04/15 01:02:18;;;;;;;4.38;2.38;;;19.60;99.90;;;;;;4241347;28;20240;-76
2022/04/15 01:04:22;;;;;;;3.53;2.30;;;19.60;99.90;;;;;;4241066;28;20225;-76
2022/04/15 01:06:29;;;;;;;3.97;2.45;;;19.60;99.90;;;;;;4243668;27;20322;-76
2022/04/15 01:08:37;;;;;;;3.92;2.40;;;19.60;99.90;;;;;;4245830;27;20251;-76
2022/04/15 01:10:40;;;;;;;3.00;2.40;;;19.60;99.90;;;;;;4243944;27;20622;-76
2022/04/15 01:12:53;;;;;;;2.67;2.40;;;19.60;99.90;;;;;;4241990;27;22175;-76
2022/04/15 01:15:00;;;;;;;3.97;2.58;;;19.60;99.90;;;;;;4240561;27;20228;-76
2022/04/15 01:17:03;;;;;;;3.40;2.40;;;19.60;99.90;;;;;;4243410;27;20229;-76
2022/04/15 01:19:05;;;;;;;2.97;2.30;;;19.60;99.90;;;;;;4243997;27;20262;-76
2022/04/15 01:21:10;;;;;;;4.25;2.75;;;19.60;99.90;;;;;;4245122;27;20221;-76
2022/04/15 01:23:13;;;;;;;3.33;2.53;;;19.60;99.90;;;;;;4244536;27;20270;-76
2022/04/15 01:25:17;;;;;;;3.28;2.38;;;19.60;99.90;;;;;;4244957;27;20274;-76
2022/04/15 01:27:26;;;;;;;3.90;2.40;;;19.50;99.90;;;;;;4242579;27;20225;-76
2022/04/15 01:29:36;;;;;;;2.90;2.60;;;19.60;99.90;;;;;;4242882;27;20270;-76
2022/04/15 01:31:38;;;;;;;3.08;2.28;;;19.60;99.90;;;;;;4242828;27;20229;-76
2022/04/15 01:33:40;;;;;;;2.88;2.40;;;19.50;99.90;;;;;;4243070;27;20216;-76
2022/04/15 01:35:43;;;;;;;4.68;2.38;;;19.60;99.90;;;;;;4244039;27;20294;-76
2022/04/15 01:37:47;;;;;;;3.70;2.60;;;19.50;99.90;;;;;;4244298;27;20251;-76
2022/04/15 01:39:51;;;;;;;4.85;2.40;;;19.50;99.90;;;;;;4243983;27;20257;-76
2022/04/15 01:41:54;;;;;;;3.55;2.50;;;19.60;99.90;;;;;;4243718;27;20260;-76
2022/04/15 01:43:56;;;;;;;4.63;2.63;;;19.50;99.90;;;;;;4244270;27;20250;-76
2022/04/15 01:45:58;;;;;;;4.07;2.67;;;19.60;99.90;;;;;;4244940;27;20217;-76
2022/04/15 01:48:01;;;;;;;3.92;2.58;;;19.50;99.90;;;;;;4243375;27;20251;-76
2022/04/15 01:50:03;;;;;;;4.68;2.85;;;19.50;99.90;;;;;;4242879;27;20221;-76
2022/04/15 01:52:06;;;;;;;4.82;2.72;;;19.50;99.90;;;;;;4244023;27;20266;-76
2022/04/15 01:54:08;;;;;;;3.13;2.45;;;19.50;99.90;;;;;;4243357;27;20270;-76
2022/04/15 01:56:12;;;;;;;3.97;2.63;;;19.50;99.90;;;;;;4244589;27;20232;-76
2022/04/15 01:58:14;;;;;;;4.53;2.80;;;19.50;99.90;;;;;;4244032;27;20274;-76
2022/04/15 02:00:17;;;;;;;3.38;2.72;;;19.50;99.90;;;;;;4243560;27;20221;-76
2022/04/15 02:02:20;;;;;;;3.47;2.67;;;19.50;99.90;;;;;;4244471;27;20633;-76
2022/04/15 02:04:22;;;;;;;3.78;2.65;;;19.50;99.90;;;;;;4242608;27;20221;-76
2022/04/15 02:06:24;;;;;;;3.63;2.60;;;19.50;99.90;;;;;;4242428;27;20949;-76
2022/04/15 02:08:27;;;;;;;3.50;2.42;;;19.50;99.90;;;;;;4243780;27;20221;-76
2022/04/15 02:10:29;;;;;;;3.10;2.60;;;19.50;99.90;;;;;;4243247;27;20273;-76
2022/04/15 02:12:33;;;;;;;3.50;2.50;;;19.50;99.90;;;;;;4242255;27;20315;-76
2022/04/15 02:14:35;;;;;;;4.85;2.85;;;19.50;99.90;;;;;;4243010;27;20262;-76
2022/04/15 02:16:38;;;;;;;4.43;2.97;;;19.50;99.90;;;;;;4244030;27;20278;-76
2022/04/15 02:18:40;;;;;;;3.53;2.67;;;19.50;99.90;;;;;;4243847;27;20225;-76
2022/04/15 02:20:42;;;;;;;3.72;3.03;;;19.50;99.90;;;;;;4243352;27;20281;-76
2022/04/15 02:22:45;;;;;;;3.20;2.25;;;19.40;99.90;;;;;;4241796;27;20610;-76
2022/04/15 02:24:47;;;;;;;4.22;3.00;;;19.40;99.90;;;;;;4242403;27;20233;-76
2022/04/15 02:26:49;;;;;;;4.35;2.85;;;19.40;99.90;;;;;;4244161;27;20274;-76
2022/04/15 02:28:53;;;;;;;2.90;2.30;;;19.50;99.90;;;;;;4242575;27;20361;-76
2022/04/15 02:30:55;;;;;;;2.65;2.35;;;19.40;99.90;;;;;;4243833;27;20221;-76
2022/04/15 02:32:58;;;;;;;2.92;2.60;;;19.50;99.90;;;;;;4244041;27;20276;-76
2022/04/15 02:35:00;;;;;;;3.53;3.00;;;19.40;99.90;;;;;;4242666;27;20631;-75
2022/04/15 02:37:02;;;;;;;2.55;2.28;;;19.40;99.90;;;;;;4242835;27;20225;-76
2022/04/15 02:39:10;;;;;;;4.28;2.53;;;19.40;99.90;;;;;;4242575;27;20278;-76
2022/04/15 02:41:13;;;;;;;4.05;2.83;;;19.40;99.90;;;;;;4240983;27;20220;-76
2022/04/15 02:43:16;;;;;;;3.67;2.70;;;19.50;99.90;;;;;;4243588;27;20225;-76
2022/04/15 02:45:21;;;;;;;3.63;2.70;;;19.50;99.90;;;;;;4243428;27;20266;-76
2022/04/15 02:47:26;;;;;;;3.88;2.67;;;19.50;99.90;;;;;;4243891;27;20209;-76
2022/04/15 02:49:29;;;;;;;4.20;2.83;;;19.40;99.90;;;;;;4242953;27;20224;-76
2022/04/15 02:51:31;;;;;;;3.90;2.97;;;19.40;99.90;;;;;;4243117;27;20217;-76
2022/04/15 02:53:34;;;;;;;4.57;2.67;;;19.40;99.90;;;;;;4242982;27;20278;-76
2022/04/15 02:55:36;;;;;;;3.92;2.92;;;19.40;99.90;;;;;;4243161;27;20232;-76
2022/04/15 02:57:38;;;;;;;3.63;2.50;;;19.40;99.90;;;;;;4239842;27;20613;-77
2022/04/15 02:59:41;;;;;;;3.17;2.67;;;19.50;99.90;;;;;;4241985;27;20217;-76
2022/04/15 03:01:45;;;;;;;3.88;2.45;;;19.40;99.90;;;;;;4238638;27;20274;-76
2022/04/15 03:03:47;;;;;;;4.15;2.88;;;19.50;99.90;;;;;;4242725;27;20221;-76
2022/04/15 03:05:49;;;;;;;3.38;2.38;;;19.40;99.90;;;;;;4240899;27;20221;-76
2022/04/15 03:07:52;;;;;;;3.22;2.58;;;19.40;99.90;;;;;;4242977;27;20217;-76
2022/04/15 03:09:54;;;;;;;5.47;2.88;;;19.40;99.90;;;;;;4241693;27;20242;-76
2022/04/15 03:11:56;;;;;;;3.97;2.63;;;19.40;99.90;;;;;;4241534;27;20277;-76
2022/04/15 03:13:59;;;;;;;2.90;2.60;;;19.40;99.90;;;;;;4237980;27;20217;-76
2022/04/15 03:16:02;;;;;;;7.15;2.90;;;19.40;99.90;;;;;;4241607;27;20263;-76
2022/04/15 03:18:06;;;;;;;5.50;2.97;;;19.40;99.90;;;;;;4242284;27;20266;-76
2022/04/15 03:20:10;;;;;;;4.38;2.90;;;19.40;99.90;;;;;;4241720;27;20228;-76
2022/04/15 03:22:12;;;;;;;3.58;2.70;;;19.40;99.90;;;;;;4240514;27;20262;-76
2022/04/15 03:24:15;;;;;;;4.35;2.78;;;19.40;99.90;;;;;;4241816;27;20721;-76
2022/04/15 03:26:17;;;;;;;3.95;3.00;;;19.40;99.90;;;;;;4241398;27;20216;-76
2022/04/15 03:28:19;;;;;;;3.58;2.70;;;19.40;99.90;;;;;;4241234;27;20220;-76
2022/04/15 03:30:21;;;;;;;3.75;2.97;;;19.40;99.90;;;;;;4240343;27;20225;-76
2022/04/15 03:32:24;;;;;;;4.35;2.80;;;19.40;99.90;;;;;;4239432;27;20282;-76
2022/04/15 03:34:28;;;;;;;4.97;2.97;;;19.40;99.90;;;;;;4241419;27;20247;-76
2022/04/15 03:36:31;;;;;;;5.05;3.33;;;19.30;99.90;;;;;;4240672;27;20240;-76
2022/04/15 03:38:33;;;;;;;5.28;3.15;;;19.40;99.90;;;;;;4241856;27;20229;-76
2022/04/15 03:40:35;;;;;;;4.32;2.88;;;19.30;99.90;;;;;;4241564;27;20474;-76
2022/04/15 03:42:45;;;;;;;4.93;3.40;;;19.30;99.90;;;;;;4241310;27;20266;-76
2022/04/15 03:44:48;;;;;;;4.78;2.80;;;19.30;99.90;;;;;;4241721;27;20549;-76
2022/04/15 03:46:50;;;;;;;4.72;2.90;;;19.40;99.90;;;;;;4240833;27;20630;-76
2022/04/15 03:48:52;;;;;;;3.38;2.85;;;19.30;99.90;;;;;;4239011;27;20221;-76
2022/04/15 03:50:56;;;;;;;4.13;3.10;;;19.30;99.90;;;;;;4241516;27;20217;-76
2022/04/15 03:52:59;;;;;;;4.65;3.15;;;19.30;99.90;;;;;;4241444;27;20277;-76
2022/04/15 03:55:01;;;;;;;4.82;3.20;;;19.30;99.90;;;;;;4241827;27;20209;-76
2022/04/15 03:57:04;;;;;;;3.42;2.90;;;19.30;99.90;;;;;;4241181;27;20245;-76
2022/04/15 03:59:07;;;;;;;3.88;2.85;;;19.30;99.90;;;;;;4240782;27;20298;-76
2022/04/15 04:01:09;;;;;;;4.20;2.85;;;19.30;99.90;;;;;;4241247;27;20263;-76
2022/04/15 04:03:12;;;;;;;5.43;3.28;;;19.30;99.90;;;;;;4242548;27;20225;-76
2022/04/15 04:05:15;;;;;;;3.47;3.00;;;19.30;99.90;;;;;;4239847;27;20217;-76
2022/04/15 04:07:19;;;;;;;4.07;3.30;;;19.30;99.90;;;;;;4241744;27;20270;-76
2022/04/15 04:09:21;;;;;;;5.28;3.25;;;19.30;99.90;;;;;;4239617;27;20733;-76
2022/04/15 04:11:24;;;;;;;4.75;2.88;;;19.30;99.90;;;;;;4242159;27;20209;-76
2022/04/15 04:13:26;;;;;;;4.20;3.35;;;19.30;99.90;;;;;;4242020;27;20224;-76
2022/04/15 04:15:29;;;;;;;5.05;3.50;;;19.30;99.90;;;;;;4239856;27;20274;-76
2022/04/15 04:17:31;;;;;;;4.25;3.20;;;19.30;99.90;;;;;;4242095;27;20232;-76
2022/04/15 04:19:34;;;;;;;5.05;3.42;;;19.30;99.90;;;;;;4242784;27;20221;-76
2022/04/15 04:21:36;;;;;;;3.78;3.30;;;19.30;99.90;;;;;;4240828;27;20274;-76
2022/04/15 04:23:40;;;;;;;4.13;3.10;;;19.30;99.90;;;;;;4240538;27;20270;-76
2022/04/15 04:25:42;;;;;;;3.97;3.08;;;19.30;99.90;;;;;;4240043;28;20278;-76
2022/04/15 04:27:45;;;;;;;4.70;3.33;;;19.20;99.90;;;;;;4241561;28;20217;-76
2022/04/15 04:29:47;;;;;;;4.05;3.20;;;19.30;99.90;;;;;;4242211;28;20221;-76
2022/04/15 04:31:50;;;;;;;5.07;3.58;;;19.30;99.90;;;;;;4241242;28;20224;-76
2022/04/15 04:33:52;;;;;;;3.20;2.88;;;19.30;99.90;;;;;;4241603;27;20221;-76
2022/04/15 04:35:56;;;;;;;4.20;3.10;;;19.20;99.90;;;;;;4241051;27;20237;-76
2022/04/15 04:37:58;;;;;;;3.42;3.03;;;19.20;99.90;;;;;;4241041;28;20229;-76
2022/04/15 04:40:02;;;;;;;4.65;3.40;;;19.20;99.90;;;;;;4239910;27;20285;-76
2022/04/15 04:42:05;;;;;;;4.05;3.03;;;19.20;99.90;;;;;;4244850;27;20224;-76
2022/04/15 04:44:08;;;;;;;3.80;3.10;;;19.20;99.90;;;;;;4245054;27;20220;-76
2022/04/15 04:46:11;;;;;;;4.35;3.45;;;19.20;99.90;;;;;;4245806;27;20224;-76
2022/04/15 04:48:13;;;;;;;4.20;3.40;;;19.20;99.90;;;;;;4244691;27;20221;-76
2022/04/15 04:50:15;;;;;;;6.95;3.72;;;19.20;99.90;;;;;;4245551;27;20281;-76
2022/04/15 04:52:18;;;;;;;4.07;3.25;;;19.20;99.90;;;;;;4243310;27;20258;-76
2022/04/15 04:54:20;;;;;;;4.85;3.35;;;19.20;99.90;;;;;;4244790;27;20713;-76
2022/04/15 04:56:24;;;;;;;4.70;3.42;;;19.20;99.90;;;;;;4242559;27;20740;-76
2022/04/15 04:58:26;;;;;;;4.15;3.20;;;19.20;99.90;;;;;;4243548;27;20265;-76
2022/04/15 05:00:29;;;;;;;5.72;3.30;;;19.20;99.90;;;;;;4244803;27;20221;-76
2022/04/15 05:02:31;;;;;;;5.50;3.35;;;19.20;99.90;;;;;;4244044;27;20688;-76
2022/04/15 05:04:33;;;;;;;5.25;3.95;;;19.20;99.90;;;;;;4243909;27;20288;-76
2022/04/15 05:06:36;;;;;;;4.78;3.40;;;19.20;99.90;;;;;;4245449;27;20290;-76
2022/04/15 05:08:39;;;;;;;5.10;3.65;;;19.20;99.90;;;;;;4244110;27;20217;-76
2022/04/15 05:10:41;;;;;;;4.13;3.40;;;19.20;99.90;;;;;;4242819;27;20229;-77
2022/04/15 05:12:46;;;;;;;4.78;3.88;;;19.20;99.90;;;;;;4242715;27;20217;-74
2022/04/15 05:14:48;;;;;;;5.45;3.60;;;19.20;99.90;;;;;;4242855;27;20246;-74
2022/04/15 05:16:50;;;;;;;3.72;3.30;;;19.20;99.90;;;;;;4244126;27;20286;-74
2022/04/15 05:18:53;;;;;;;5.15;3.80;;;19.20;99.90;;;;;;4243001;27;20225;-74
2022/04/15 05:20:55;;;;;;;6.68;3.67;;;19.20;99.90;;;;;;4243331;27;20213;-73
2022/04/15 05:22:57;;;;;;;5.35;3.40;;;19.20;99.90;;;;;;4244196;27;20217;-74
2022/04/15 05:24:59;;;;;;;4.78;3.40;;;19.20;99.90;;;;;;4243073;27;20269;-74
2022/04/15 05:27:02;;;;;;;4.88;3.33;;;19.20;99.90;;;;;;4243425;27;20302;-74
2022/04/15 05:29:08;;;;;;;3.78;3.35;;;19.20;99.90;;;;;;4241997;27;20246;-74
2022/04/15 05:31:10;;;;;;;4.10;3.47;;;19.20;99.90;;;;;;4241579;27;20213;-74
2022/04/15 05:33:12;;;;;;;5.55;4.13;;;19.20;99.90;;;;;;4242402;27;20285;-74
2022/04/15 05:35:15;;;;;;;4.50;3.28;;;19.20;99.90;;;;;;4240925;27;20225;-74
2022/04/15 05:37:17;;;;;;;4.53;3.38;;;19.20;99.90;;;;;;4243666;27;20633;-74
2022/04/15 05:39:20;;;;;;;6.20;3.47;;;19.20;99.90;;;;;;4243048;27;20270;-74
2022/04/15 05:41:22;;;;;;;7.20;3.97;;;19.20;99.90;;;;;;4242981;27;20217;-74
2022/04/15 05:43:24;;;;;;;5.25;3.85;;;19.20;99.90;;;;;;4243815;27;20269;-74
2022/04/15 05:45:28;;;;;;;4.82;3.33;;;19.20;99.90;;;;;;4243272;27;20278;-74
2022/04/15 05:47:30;;;;;;;3.78;3.42;;;19.20;99.90;;;;;;4240227;27;20205;-74
2022/04/15 05:49:34;;;;;;;4.40;3.50;;;19.20;99.90;;;;;;4243477;27;20273;-74
2022/04/15 05:51:36;;;;;;;5.00;3.60;;;19.20;99.90;;;;;;4240282;27;20209;-74
2022/04/15 05:53:38;;;;;;;4.07;3.40;;;19.20;99.90;;;;;;4218327;28;20298;-74
2022/04/15 05:55:41;;;;;;;4.25;3.30;;;19.20;99.90;;;;;;4214253;28;20222;-74
2022/04/15 05:57:43;;;;;;;5.70;3.35;;;19.20;99.90;;;;;;4213511;28;20238;-74
2022/04/15 05:59:45;;;;;;;6.00;3.88;;;19.20;99.90;;;;;;4217411;28;20219;-74
2022/04/15 06:01:50;;;;;;;4.70;3.17;;;19.20;99.90;;;;;;4211582;28;20272;-74
2022/04/15 06:03:52;;;;;;;4.57;3.50;;;19.20;99.90;;;;;;4216584;28;20748;-74
2022/04/15 06:05:55;;;;;;;6.28;3.65;;;19.20;99.90;;;;;;4217477;28;20225;-74
2022/04/15 06:07:57;;;;;;;5.25;3.50;;;19.20;99.90;;;;;;4226026;28;20267;-74
2022/04/15 06:09:59;;;;;;;5.50;3.70;;;19.20;99.90;;;;;;4217906;28;20217;-74
2022/04/15 06:12:02;;;;;;;4.53;3.40;;;19.30;99.90;;;;;;4225980;28;20222;-74
2022/04/15 06:14:06;;;;;;;7.28;3.40;;;19.20;99.90;;;;;;4218273;28;21060;-74
2022/04/15 06:16:09;;;;;;;6.65;3.83;;;19.30;99.90;;;;;;4218018;28;20206;-74
2022/04/15 06:18:13;;;;;;;6.07;3.53;;;19.20;99.90;;;;;;4224889;28;20245;-74
2022/04/15 06:20:15;;;;;;;5.45;3.78;;;19.30;99.90;;;;;;4242040;27;20217;-74
2022/04/15 06:22:17;;;;;;;5.07;3.83;;;19.30;99.90;;;;;;4240633;27;20221;-74
2022/04/15 06:24:20;;;;;;;5.72;3.95;;;19.20;99.90;;;;;;4243449;27;20576;-74
2022/04/15 06:26:22;;;;;;;4.80;3.67;;;19.30;99.90;;;;;;4241528;27;20229;-74
2022/04/15 06:28:25;;;;;;;7.07;3.75;;;19.20;99.90;;;;;;4243247;27;20462;-74
2022/04/15 06:30:27;;;;;;;6.88;3.97;;;19.30;99.90;;;;;;4242444;27;20359;-74
2022/04/15 06:32:29;;;;;;;4.43;3.58;;;19.30;99.90;;;;;;4243150;27;20285;-74
2022/04/15 06:34:33;;;;;;;6.93;3.97;;;19.30;99.90;;;;;;4241797;27;20217;-74
2022/04/15 06:36:35;;;;;;;4.75;3.60;;;19.20;99.90;;;;;;4241038;27;20714;-74
2022/04/15 06:38:38;;;;;;;4.90;3.92;;;19.30;99.90;;;;;;4239460;27;20281;-74
2022/04/15 06:40:40;;;;;;;6.60;4.38;;;19.30;99.90;;;;;;4242828;27;20221;-74
2022/04/15 06:42:42;;;;;;;4.43;3.88;;;19.30;99.90;;;;;;4242330;27;20221;-74
2022/04/15 06:44:44;;;;;;;5.78;4.32;;;19.30;99.90;;;;;;4242751;27;20209;-74
2022/04/15 06:46:47;;;;;;;5.00;4.05;;;19.30;99.90;;;;;;4241463;27;20258;-74
2022/04/15 06:48:49;;;;;;;4.70;3.42;;;19.30;99.90;;;;;;4242131;27;20725;-74
2022/04/15 06:50:54;;;;;;;5.05;3.90;;;19.30;99.90;;;;;;4242014;27;20277;-74
2022/04/15 06:52:56;;;;;;;4.75;3.30;;;19.30;99.90;;;;;;4241842;27;20229;-74
2022/04/15 06:54:59;;;;;;;5.68;3.80;;;19.30;99.90;;;;;;4239483;27;20290;-74
2022/04/15 06:57:01;;;;;;;5.72;4.20;;;19.30;99.90;;;;;;4241755;27;20225;-74
2022/04/15 06:59:03;;;;;;;5.88;3.75;;;19.30;99.90;;;;;;4242027;27;20281;-74
2022/04/15 07:01:06;;;;;;;7.47;4.05;;;19.30;99.90;;;;;;4242319;27;20205;-74
2022/04/15 07:03:12;;;;;;;6.13;3.53;;;19.30;99.90;;;;;;4241047;27;20213;-74
2022/04/15 07:05:14;;;;;;;4.05;3.65;;;19.30;99.90;;;;;;4241324;27;20249;-74
2022/04/15 07:07:18;;;;;;;5.75;4.00;;;19.30;99.90;;;;;;4241524;27;20538;-74
2022/04/15 07:09:20;;;;;;;5.18;3.58;;;19.30;99.90;;;;;;4242198;27;20209;-74
2022/04/15 07:11:22;;;;;;;6.80;4.03;;;19.30;99.90;;;;;;4240576;27;20682;-74
2022/04/15 07:13:25;;;;;;;5.18;3.72;;;19.30;99.90;;;;;;4240213;27;20213;-74
2022/04/15 07:15:27;;;;;;;4.97;3.95;;;19.30;99.90;;;;;;4242491;27;20220;-73
2022/04/15 07:17:30;;;;;;;4.93;3.53;;;19.30;99.90;;;;;;4242042;27;20270;-74
2022/04/15 07:19:32;;;;;;;5.25;3.83;;;19.30;99.90;;;;;;4241221;27;20301;-74
2022/04/15 07:21:35;;;;;;;3.50;3.15;;;19.30;99.90;;;;;;4242442;27;20257;-74
2022/04/15 07:23:39;;;;;;;3.97;3.55;;;19.30;99.90;;;;;;4241636;27;20242;-74
2022/04/15 07:25:41;;;;;;;8.38;4.03;;;19.30;99.90;;;;;;4242083;27;20217;-74
2022/04/15 07:27:43;;;;;;;5.68;4.15;;;19.30;99.90;;;;;;4241731;27;20681;-74
2022/04/15 07:29:47;;;;;;;4.45;3.25;;;19.30;99.90;;;;;;4238824;27;20289;-74
2022/04/15 07:31:49;;;;;;;5.10;3.65;;;19.30;99.90;;;;;;4241835;27;20266;-74
2022/04/15 07:33:52;;;;;;;4.18;3.70;;;19.30;99.90;;;;;;4242140;27;20226;-74
2022/04/15 07:35:54;;;;;;;5.53;3.85;;;19.30;99.90;;;;;;4242092;27;20241;-74
2022/04/15 07:37:57;;;;;;;4.80;3.67;;;19.30;99.90;;;;;;4241193;27;20233;-74
2022/04/15 07:40:00;;;;;;;5.45;3.92;;;19.30;99.90;;;;;;4241387;27;20266;-74
2022/04/15 07:42:03;;;;;;;4.85;3.63;;;19.30;99.90;;;;;;4241751;27;20213;-74
2022/04/15 07:44:06;;;;;;;5.55;3.95;;;19.30;99.90;;;;;;4240358;27;20269;-74
2022/04/15 07:46:08;;;;;;;3.83;3.40;;;19.30;99.90;;;;;;4237481;27;20220;-73
2022/04/15 07:48:12;;;;;;;4.45;3.63;;;19.40;99.90;;;;;;4242444;27;20221;-74
2022/04/15 07:50:14;;;;;;;4.70;3.65;;;19.30;99.90;;;;;;4240783;27;20221;-74
2022/04/15 07:52:17;;;;;;;4.53;3.63;;;19.30;99.90;;;;;;4240049;27;20213;-74
2022/04/15 07:54:19;;;;;;;6.55;3.80;;;19.30;99.90;;;;;;4241273;27;20216;-74
2022/04/15 07:56:23;;;;;;;4.13;3.28;;;19.40;99.90;;;;;;4241613;27;20336;-74
2022/04/15 07:58:25;;;;;;;4.05;3.65;;;19.40;99.90;;;;;;4240870;27;20225;-74
2022/04/15 08:00:31;;;;;;;4.68;3.65;;;19.30;99.90;;;;;;4241201;27;20996;-74
2022/04/15 08:02:34;;;;;;;5.40;3.50;;;19.40;99.90;;;;;;4240526;27;20966;-74
2022/04/15 08:04:39;;;;;;;4.68;3.45;;;19.40;99.90;;;;;;4241099;27;20245;-74
2022/04/15 08:06:44;;;;;;;5.00;3.45;;;19.40;99.90;;;;;;4240899;27;20269;-74
2022/04/15 08:08:46;;;;;;;3.90;3.30;;;19.40;99.90;;;;;;4239295;27;20266;-74
2022/04/15 08:10:50;;;;;;;4.03;3.53;;;19.40;99.90;;;;;;4240325;27;20225;-74
2022/04/15 08:12:54;;;;;;;3.80;3.28;;;19.40;99.90;;;;;;4241277;27;20225;-74
2022/04/15 08:14:57;;;;;;;3.83;3.38;;;19.50;99.90;;;;;;4239932;27;20640;-74
2022/04/15 08:16:59;;;;;;;5.35;3.05;;;19.40;99.90;;;;;;4241358;27;20265;-74
2022/04/15 08:19:02;;;;;;;3.40;2.85;;;19.40;99.90;;;;;;4242183;27;20236;-74
2022/04/15 08:21:04;;;;;;;4.35;3.17;;;19.50;99.90;;;;;;4239753;28;20228;-74
2022/04/15 08:23:09;;;;;;;4.68;3.50;;;19.40;99.90;;;;;;4239450;27;20270;-74
2022/04/15 08:25:11;;;;;;;4.15;3.30;;;19.50;99.90;;;;;;4239743;28;20224;-74
2022/04/15 08:27:13;;;;;;;4.68;3.30;;;19.50;99.90;;;;;;4240728;28;20269;-73
2022/04/15 08:29:17;;;;;;;3.65;2.88;;;19.50;99.90;;;;;;4238622;27;20618;-74
2022/04/15 08:31:19;;;;;;;4.38;3.13;;;19.50;99.90;;;;;;4240108;28;20355;-74
2022/04/15 08:33:23;;;;;;;3.83;3.28;;;19.50;99.90;;;;;;4241827;27;20984;-74
2022/04/15 08:35:26;;;;;;;4.65;3.70;;;19.50;99.90;;;;;;4239756;27;20228;-74
2022/04/15 08:37:28;;;;;;;4.53;2.90;;;19.50;99.90;;;;;;4238425;27;20216;-74
2022/04/15 08:39:30;;;;;;;4.22;2.88;;;19.60;99.90;;;;;;4240398;28;20232;-74
2022/04/15 08:41:41;;;;;;;3.97;3.05;;;19.50;99.90;;;;;;4239122;28;20614;-74
2022/04/15 08:43:43;;;;;;;3.53;3.13;;;19.60;99.90;;;;;;4236340;28;20312;-74
2022/04/15 08:45:48;;;;;;;3.83;3.17;;;19.60;99.90;;;;;;4238922;28;20294;-75
2022/04/15 08:47:50;;;;;;;3.17;2.88;;;19.60;99.90;;;;;;4240750;28;20221;-74
2022/04/15 08:49:52;;;;;;;4.00;2.72;;;19.60;99.90;;;;;;4240199;28;20217;-74
2022/04/15 08:51:56;;;;;;;3.08;2.78;;;19.60;99.90;;;;;;4234925;28;20282;-74
2022/04/15 08:53:58;;;;;;;3.50;3.20;;;19.60;99.90;;;;;;4210625;28;20214;-74
2022/04/15 08:56:01;;;;;;;3.13;2.83;;;19.60;99.90;;;;;;4240119;28;20309;-74
2022/04/15 08:58:04;;;;;;;3.63;2.80;;;19.60;99.90;;;;;;4239842;28;20270;-74
2022/04/15 09:00:07;;;;;;;4.32;2.90;;;19.60;99.90;;;;;;4240180;28;20307;-74
2022/04/15 09:02:14;;;;;;;2.80;2.42;;;19.60;99.90;;;;;;4239703;28;20217;-74
2022/04/15 09:04:18;;;;;;;3.00;2.70;;;19.60;99.90;;;;;;4241129;28;20226;-74
2022/04/15 09:06:20;;;;;;;3.35;2.55;;;19.60;99.90;;;;;;4238806;28;20274;-74
2022/04/15 09:08:24;;;;;;;3.53;2.85;;;19.70;99.90;;;;;;4241675;28;20266;-74
2022/04/15 09:10:26;;;;;;;5.18;3.00;;;19.70;99.90;;;;;;4238454;28;20213;-74
2022/04/15 09:12:29;;;;;;;2.97;2.45;;;19.70;99.90;;;;;;4239158;28;20262;-74
2022/04/15 09:14:32;;;;;;;2.95;2.67;;;19.70;99.90;;;;;;4240937;28;20225;-74
2022/04/15 09:16:38;;;;;;;3.90;2.65;;;19.70;99.90;;;;;;4240902;28;20221;-74
2022/04/15 09:18:42;;;;;;;3.05;2.70;;;19.70;99.90;;;;;;4240786;28;20233;-74
2022/04/15 09:20:44;;;;;;;3.63;3.03;;;19.70;99.90;;;;;;4241487;28;20313;-74
2022/04/15 09:22:47;;;;;;;3.20;2.70;;;19.70;99.90;;;;;;4241125;28;20221;-74
2022/04/15 09:24:51;;;;;;;4.63;2.63;;;19.70;99.90;;;;;;4240724;28;20266;-74
2022/04/15 09:26:53;;;;;;;2.97;2.63;;;19.70;99.90;;;;;;4242200;27;20217;-74
2022/04/15 09:28:56;;;;;;;3.22;2.70;;;19.70;99.90;;;;;;4242185;27;20289;-74
2022/04/15 09:30:58;;;;;;;3.38;2.70;;;19.70;99.90;;;;;;4244578;27;21582;-74
2022/04/15 09:33:02;;;;;;;3.00;2.42;;;19.70;99.90;;;;;;4243205;27;20225;-74
2022/04/15 09:35:07;;;;;;;3.67;2.55;;;19.70;99.90;;;;;;4240643;27;20221;-74
2022/04/15 09:37:10;;;;;;;2.88;2.58;;;19.70;99.90;;;;;;4242192;27;20217;-74
2022/04/15 09:39:15;;;;;;;3.80;2.38;;;19.70;99.90;;;;;;4243522;27;20576;-74
2022/04/15 09:41:21;;;;;;;5.03;2.50;;;19.70;99.90;;;;;;4243769;27;20229;-74
2022/04/15 09:43:23;;;;;;;3.83;2.80;;;19.70;99.90;;;;;;4244009;27;20221;-74
2022/04/15 09:45:27;;;;;;;3.03;2.47;;;19.80;99.90;;;;;;4241844;27;20217;-74
2022/04/15 09:47:30;;;;;;;3.63;2.47;;;19.70;99.90;;;;;;4242816;27;20269;-74
2022/04/15 09:49:34;;;;;;;3.15;2.15;;;19.70;99.90;;;;;;4243524;27;20213;-74
2022/04/15 09:51:43;;;;;;;3.40;2.65;;;19.80;99.90;;;;;;4243523;27;20217;-74
2022/04/15 09:53:51;;;;;;;3.10;2.38;;;19.80;99.90;;;;;;4239085;27;20220;-74
2022/04/15 09:55:54;;;;;;;3.33;2.42;;;19.80;99.90;;;;;;4240260;27;20224;-74
2022/04/15 09:57:59;;;;;;;4.10;2.90;;;19.80;99.90;;;;;;4243781;27;20209;-74
2022/04/15 10:00:03;;;;;;;2.85;2.30;;;19.80;99.90;;;;;;4241993;27;20237;-74
2022/04/15 10:02:12;;;;;;;2.67;2.20;;;19.80;99.90;;;;;;4240749;27;20254;-74
2022/04/15 10:04:15;;;;;;;3.70;2.20;;;19.80;99.90;;;;;;4242522;27;20220;-74
2022/04/15 10:06:18;;;;;;;4.30;2.70;;;19.80;99.90;;;;;;4241090;27;20225;-74
2022/04/15 10:08:23;;;;;;;2.78;2.33;;;19.80;99.90;;;;;;4242597;27;20696;-74
2022/04/15 10:10:26;;;;;;;2.90;2.22;;;19.80;99.90;;;;;;4242433;27;20238;-74
2022/04/15 10:12:29;;;;;;;4.03;2.40;;;19.80;99.90;;;;;;4239006;27;20254;-74
2022/04/15 10:14:35;;;;;;;3.42;2.17;;;19.80;99.90;;;;;;4240702;27;20221;-74
2022/04/15 10:16:39;;;;;;;2.40;2.13;;;19.80;99.90;;;;;;4243298;27;20277;-74
2022/04/15 10:18:42;;;;;;;5.35;2.60;;;19.80;99.90;;;;;;4241796;27;20209;-74
2022/04/15 10:20:44;;;;;;;2.78;2.17;;;19.80;99.90;;;;;;4241948;27;20274;-74
2022/04/15 10:22:47;;;;;;;3.50;2.22;;;19.80;99.90;;;;;;4242765;27;20959;-74
2022/04/15 10:24:51;;;;;;;2.58;2.13;;;19.80;99.90;;;;;;4243059;27;20273;-74
2022/04/15 10:26:59;;;;;;;2.40;2.20;;;19.80;99.90;;;;;;4242917;27;20650;-74
2022/04/15 10:29:04;;;;;;;3.10;2.55;;;19.80;99.90;;;;;;4241589;27;20658;-74
2022/04/15 10:31:08;;;;;;;2.97;2.20;;;19.80;99.90;;;;;;4241839;27;20258;-74
2022/04/15 10:33:27;;;;;;;3.35;2.40;;;19.80;99.90;;;;;;4241580;27;20229;-74
2022/04/15 10:35:32;;;;;;;4.78;2.40;;;19.80;99.90;;;;;;4242518;27;20728;-74
2022/04/15 10:37:47;;;;;;;2.85;2.53;;;19.80;99.90;;;;;;4239837;27;20213;-74
2022/04/15 10:39:51;;;;;;;3.38;2.20;;;19.80;99.90;;;;;;4242177;27;20313;-74
2022/04/15 10:41:57;;;;;;;3.00;2.15;;;19.80;99.90;;;;;;4242682;27;20212;-74